Flushing, NY (11371)

6:29 AM EDT on May 28, 2015 (GMT -0400)
La Guardia | | Change Station
CLOSE
Current Station
Airport
Location: New York,
Elevation: 30 ft
Nearby Weather Stations

Elev 30 ft 40.78 °N, 73.88 °W | Updated 38 minutes ago

Overcast
Overcast
68 °F
Feels Like 68 °F
N
7
Wind Variable Wind from South

Today
High -- | Low -- °F
--% Chance of Precip.
Yesterday
High -- | Low -- °F
Precip. -- in
5:28 AM 8:17 PM
Waxing Gibbous, 75% visible
Pressure 30.14 in
Visibility 10.0 miles
Clouds Overcast 1200 ft
Dew Point 61 °F
Humidity 78%
Rainfall 0.00 in
Snow Depth Not available.
UV 0 out of 12
Pollen 4.90 out of 12
Air Quality Not available.
Flu Activity Widespread
METAR KLGA 280951Z 17006KT 10SM OVC012 20/16 A3014 RMK AO2 SLP205 T02000161 $

More Conditions Fewer Conditions

Pressure 30.14 in
Visibility 10.0 miles
Clouds Overcast 1200 ft
Dew Point 61 °F
Humidity 78%
Rainfall 0.00 in
Snow Depth Not available.
UV 0 out of 12
Pollen 4.90 out of 12
Air Quality Not available.
Flu Activity Widespread
METAR KLGA 280951Z 17006KT 10SM OVC012 20/16 A3014 RMK AO2 SLP205 T02000161 $

More Conditions Fewer Conditions

10-Day Weather Forecast

Almanac

Astronomy

May. 28, 2015 Rise Set
Actual Time
Civil Twilight
Nautical Twilight
Astronomical Twilight
Moon
Length of Visible Light
Length of Day
Tomorrow will be .
, % of the Moon is Illuminated

Today's Extremes

State Highs State Lows

Community

WunderPhotos

Upload Photos

1,824,935 photos uploaded!

WunderBlogs® & News

Nearby

Air Quality

  Air Quality AQ Index Pollutant
Not available.

Snow Depth

Station Depth Elevation

Earthquake Activity

City Distance Mag. Time & Date
Minimum magnitude displayed is 2.5.

Coastal Water Temperatures

Place Temperature

Stations

Nearby Weather Stations

Station Location Temp. Windchill Dew Point Humidity Wind Precip. Elev Updated Type